Time;durP1;ratioP1;P1;durP2;ratioP2;P2;SDS_P1;SDS_P2;PMS_P1;PMS_P2;Temp;Humidity;BMP_temperature;BMP_pressure;BME280_temperature;BME280_humidity;BME280_pressure;Samples;Min_cycle;Max_cycle;Signal;HPM_P1;HPM_P2
2023/03/21 00:01:41;;;;;;;45.45;39.35;;;28.10;77.60;;;;;;1894388;74;21151;-83
2023/03/21 00:04:12;;;;;;;55.35;40.10;;;28.10;77.20;;;;;;1930693;74;21200;-83
2023/03/21 00:06:43;;;;;;;55.25;40.30;;;28.20;78.30;;;;;;1912837;74;21107;-82
2023/03/21 00:09:14;;;;;;;57.00;41.58;;;28.20;78.50;;;;;;1902847;74;21205;-76
2023/03/21 00:11:47;;;;;;;51.60;40.52;;;28.20;78.50;;;;;;1917705;73;21170;-75
2023/03/21 00:14:18;;;;;;;47.43;39.33;;;28.20;78.30;;;;;;1922953;74;21425;-75
2023/03/21 00:16:51;;;;;;;59.18;41.73;;;28.30;78.00;;;;;;1891027;74;21112;-75
2023/03/21 00:19:25;;;;;;;71.72;42.75;;;28.30;78.90;;;;;;1898540;74;21127;-75
2023/03/21 00:21:55;;;;;;;51.18;41.73;;;28.40;78.50;;;;;;1903135;74;21116;-74
2023/03/21 00:24:28;;;;;;;53.75;42.58;;;28.30;79.00;;;;;;1867907;75;21460;-74
2023/03/21 00:26:59;;;;;;;52.38;41.98;;;28.30;79.00;;;;;;1836887;78;22027;-74
2023/03/21 00:29:32;;;;;;;48.78;41.88;;;28.30;79.40;;;;;;1865779;74;21210;-75
2023/03/21 00:32:03;;;;;;;51.92;43.05;;;28.30;79.10;;;;;;1856914;76;22269;-74
2023/03/21 00:34:37;;;;;;;52.90;42.03;;;28.30;79.70;;;;;;1857195;77;21117;-75
2023/03/21 00:37:09;;;;;;;55.40;43.42;;;28.20;79.10;;;;;;1853227;77;21877;-73
2023/03/21 00:39:40;;;;;;;55.90;42.23;;;28.30;79.90;;;;;;1839949;76;21709;-75
2023/03/21 00:42:11;;;;;;;52.90;42.30;;;28.30;79.80;;;;;;1843363;75;21221;-75
2023/03/21 00:44:43;;;;;;;49.48;42.10;;;28.40;79.70;;;;;;1876001;75;21147;-76
2023/03/21 00:47:14;;;;;;;51.70;44.00;;;28.40;80.20;;;;;;1805331;78;21142;-77
2023/03/21 00:49:46;;;;;;;59.90;42.70;;;28.40;80.20;;;;;;1814959;76;21150;-77
2023/03/21 00:52:17;;;;;;;55.80;42.90;;;28.40;80.20;;;;;;1827487;76;21141;-76
2023/03/21 00:54:49;;;;;;;56.15;42.67;;;28.50;79.50;;;;;;1838620;77;21160;-75
2023/03/21 00:57:21;;;;;;;53.23;43.28;;;28.50;80.10;;;;;;1855912;77;21191;-76
2023/03/21 00:59:53;;;;;;;57.45;43.98;;;28.50;80.10;;;;;;1851106;76;21938;-75
2023/03/21 01:02:25;;;;;;;55.55;44.27;;;28.60;80.00;;;;;;1854988;77;21249;-78
2023/03/21 01:04:56;;;;;;;49.40;42.73;;;28.60;79.50;;;;;;1857517;77;21144;-76
2023/03/21 01:07:27;;;;;;;52.35;42.62;;;28.60;79.70;;;;;;1847409;75;21199;-77
2023/03/21 01:09:58;;;;;;;49.27;43.60;;;28.70;80.00;;;;;;1840201;76;21120;-75
2023/03/21 01:12:29;;;;;;;58.30;44.13;;;28.70;80.00;;;;;;1828276;77;21170;-75
2023/03/21 01:15:01;;;;;;;53.08;43.85;;;28.80;80.00;;;;;;1856917;77;21657;-74
2023/03/21 01:17:32;;;;;;;53.65;41.88;;;28.80;79.30;;;;;;1852810;77;21111;-74
2023/03/21 01:20:05;;;;;;;62.98;45.08;;;28.90;79.00;;;;;;1852548;75;21225;-74
2023/03/21 01:22:36;;;;;;;64.53;45.40;;;29.00;79.00;;;;;;1885492;75;21972;-73
2023/03/21 01:25:09;;;;;;;72.00;45.88;;;29.10;79.00;;;;;;1867483;75;21395;-74
2023/03/21 01:27:42;;;;;;;57.80;44.75;;;29.10;78.80;;;;;;1822527;78;21232;-74
2023/03/21 01:30:13;;;;;;;54.80;44.33;;;29.20;78.70;;;;;;1822342;78;21207;-74
2023/03/21 01:32:46;;;;;;;57.48;45.50;;;29.30;78.40;;;;;;1856273;76;21943;-74
2023/03/21 01:35:17;;;;;;;54.67;43.40;;;29.30;78.00;;;;;;1817159;78;21187;-73
2023/03/21 01:37:48;;;;;;;65.40;46.77;;;29.40;77.60;;;;;;1863017;76;21875;-73
2023/03/21 01:40:22;;;;;;;60.48;45.33;;;29.40;77.60;;;;;;1869316;76;21882;-74
2023/03/21 01:42:53;;;;;;;66.87;51.77;;;29.40;77.70;;;;;;1849235;76;21156;-74
2023/03/21 01:46:04;;;;;;;68.05;45.43;;;29.50;77.70;;;;;;1867579;75;21154;-74
2023/03/21 01:48:39;;;;;;;54.93;44.30;;;29.50;77.30;;;;;;1878950;75;21154;-74
2023/03/21 01:51:13;;;;;;;56.83;45.48;;;29.50;77.40;;;;;;1873525;75;21160;-74
2023/03/21 01:53:50;;;;;;;55.43;44.93;;;29.50;76.80;;;;;;1872626;75;21193;-74
2023/03/21 01:56:33;;;;;;;53.52;43.75;;;29.60;76.80;;;;;;1861789;75;21417;-74
2023/03/21 01:59:09;;;;;;;55.08;45.35;;;29.60;76.50;;;;;;1862975;75;22041;-74
2023/03/21 02:01:41;;;;;;;;;;;29.70;76.90;;;;;;1879137;75;21187;-74
2023/03/21 02:04:12;;;;;;;60.55;44.65;;;29.80;76.30;;;;;;1879940;75;20333;-75
2023/03/21 02:07:04;;;;;;;62.15;44.05;;;29.90;75.90;;;;;;1863320;76;21162;-74
2023/03/21 02:09:39;;;;;;;48.33;42.27;;;30.00;76.00;;;;;;1879057;75;21689;-74
2023/03/21 02:12:10;;;;;;;54.27;43.00;;;30.00;75.20;;;;;;1862297;77;21162;-73
2023/03/21 02:14:42;;;;;;;52.70;41.37;;;30.20;74.90;;;;;;1883341;75;21245;-74
2023/03/21 02:17:34;;;;;;;56.58;42.08;;;30.20;74.40;;;;;;1886742;75;21591;-74
2023/03/21 02:20:30;;;;;;;51.68;40.55;;;30.30;74.00;;;;;;1881068;75;21970;-73
2023/03/21 02:23:20;;;;;;;45.28;38.53;;;30.40;73.60;;;;;;1875920;75;21695;-75
2023/03/21 02:26:09;;;;;;;52.53;39.63;;;30.60;72.60;;;;;;1851429;75;21174;-73
2023/03/21 02:28:51;;;;;;;59.27;41.60;;;30.60;72.70;;;;;;1876907;75;21195;-74
2023/03/21 02:31:43;;;;;;;49.35;41.15;;;30.80;72.50;;;;;;1878061;75;21907;-74
2023/03/21 02:34:37;;;;;;;70.10;42.70;;;31.00;72.40;;;;;;1860952;75;21119;-74
2023/03/21 02:37:26;;;;;;;56.58;38.05;;;31.10;71.50;;;;;;1852552;75;21106;-72
2023/03/21 02:40:09;;;;;;;45.30;36.90;;;31.20;69.70;;;;;;1811745;75;21162;-74
2023/03/21 02:42:52;;;;;;;52.43;36.63;;;31.40;68.90;;;;;;1862854;75;21204;-74
2023/03/21 02:45:30;;;;;;;50.80;36.42;;;31.40;68.30;;;;;;1860662;77;21122;-74
2023/03/21 02:48:10;;;;;;;48.48;35.38;;;31.60;67.00;;;;;;1859134;75;21156;-74
2023/03/21 02:50:50;;;;;;;44.63;35.43;;;31.70;67.20;;;;;;1858216;75;21263;-74
2023/03/21 02:53:24;;;;;;;40.38;34.35;;;31.70;65.90;;;;;;1849487;75;21539;-74
2023/03/21 02:55:56;;;;;;;42.35;35.05;;;31.80;65.50;;;;;;1891855;75;21112;-74
2023/03/21 02:58:29;;;;;;;46.88;37.90;;;31.90;65.80;;;;;;1894242;75;21144;-75
2023/03/21 03:01:00;;;;;;;42.93;34.67;;;;;;;;;;1896215;75;21159;-75
2023/03/21 03:03:31;;;;;;;46.48;36.65;;;31.90;82.10;;;;;;1896716;75;21591;-75
2023/03/21 03:06:06;;;;;;;43.73;34.43;;;32.20;63.60;;;;;;1869979;75;21108;-75
2023/03/21 03:09:10;;;;;;;47.43;34.53;;;32.30;62.90;;;;;;1855154;77;21204;-75
2023/03/21 03:11:46;;;;;;;41.20;32.38;;;32.50;62.90;;;;;;1832733;77;21151;-74
2023/03/21 03:14:25;;;;;;;41.55;32.40;;;32.50;61.50;;;;;;1893886;75;21111;-74
2023/03/21 03:17:19;;;;;;;39.42;31.37;;;32.70;62.00;;;;;;1864824;75;21162;-74
2023/03/21 03:20:14;;;;;;;44.20;35.80;;;32.80;62.00;;;;;;1862677;77;21142;-74
2023/03/21 03:23:11;;;;;;;40.67;33.02;;;32.90;62.00;;;;;;1856874;77;21205;-74
2023/03/21 03:25:48;;;;;;;40.55;31.45;;;33.00;60.50;;;;;;1830486;76;21613;-75
2023/03/21 03:28:22;;;;;;;38.30;30.55;;;33.10;59.50;;;;;;1852371;77;21552;-73
2023/03/21 03:30:55;;;;;;;35.30;31.12;;;33.20;59.20;;;;;;1832262;77;21197;-75
2023/03/21 03:33:28;;;;;;;43.35;31.17;;;33.30;59.10;;;;;;1824218;77;21130;-75
2023/03/21 03:36:00;;;;;;;36.35;29.30;;;33.40;59.40;;;;;;1816853;79;21112;-75
2023/03/21 03:38:34;;;;;;;38.17;29.15;;;33.50;58.80;;;;;;1831386;76;21133;-76
2023/03/21 03:41:11;;;;;;;46.45;31.48;;;33.60;57.50;;;;;;1842012;77;21757;-75
2023/03/21 03:43:45;;;;;;;36.85;30.72;;;33.80;58.50;;;;;;1806527;78;21931;-76
2023/03/21 03:46:19;;;;;;;47.00;32.60;;;33.90;57.90;;;;;;1850555;77;21207;-76
2023/03/21 03:48:58;;;;;;;34.78;29.07;;;34.00;57.70;;;;;;1846795;77;21164;-76
2023/03/21 03:51:44;;;;;;;33.25;29.75;;;34.10;56.40;;;;;;1851087;77;21117;-77
2023/03/21 03:54:18;;;;;;;38.10;27.82;;;34.20;56.80;;;;;;1831118;77;21914;-76
2023/03/21 03:56:50;;;;;;;37.88;29.42;;;34.30;56.20;;;;;;1821654;78;21985;-75
2023/03/21 03:59:24;;;;;;;36.33;29.63;;;34.40;55.60;;;;;;1816245;78;21263;-76
2023/03/21 04:01:55;;;;;;;33.25;28.00;;;34.50;56.10;;;;;;1818336;77;21220;-77
2023/03/21 04:04:28;;;;;;;33.92;27.55;;;34.60;54.30;;;;;;1837625;77;21158;-75
2023/03/21 04:06:59;;;;;;;44.08;32.30;;;34.70;54.10;;;;;;1814207;77;21764;-76
2023/03/21 04:09:31;;;;;;;40.35;28.15;;;34.80;55.00;;;;;;1824445;78;21979;-75
2023/03/21 04:12:05;;;;;;;45.78;26.25;;;34.90;54.70;;;;;;1821348;77;21409;-75
2023/03/21 04:14:36;;;;;;;34.67;26.40;;;34.90;53.90;;;;;;1845979;77;21634;-75
2023/03/21 04:17:10;;;;;;;37.20;27.02;;;34.90;53.20;;;;;;1845409;76;21233;-74
2023/03/21 04:19:41;;;;;;;43.33;27.70;;;35.00;54.50;;;;;;1824791;77;21453;-74
2023/03/21 04:22:15;;;;;;;36.48;26.25;;;35.10;53.70;;;;;;1824246;77;21154;-76
2023/03/21 04:24:45;;;;;;;44.15;28.40;;;35.10;53.90;;;;;;1854643;75;21174;-76
2023/03/21 04:27:16;;;;;;;32.90;27.58;;;35.20;52.40;;;;;;1869386;76;21862;-75
2023/03/21 04:29:47;;;;;;;40.05;27.65;;;35.30;52.00;;;;;;1836843;76;21188;-75
2023/03/21 04:32:18;;;;;;;32.63;24.25;;;35.40;52.20;;;;;;1867443;76;21198;-76
2023/03/21 04:34:52;;;;;;;33.73;24.98;;;35.40;50.60;;;;;;1879321;74;21257;-74
2023/03/21 04:37:23;;;;;;;32.00;24.75;;;35.50;50.90;;;;;;1846785;75;21143;-75
2023/03/21 04:39:54;;;;;;;47.25;26.15;;;35.50;50.40;;;;;;1841016;75;21185;-76
2023/03/21 04:42:26;;;;;;;34.30;25.30;;;35.50;50.80;;;;;;1845660;77;21140;-74
2023/03/21 04:44:57;;;;;;;26.57;23.77;;;35.60;50.60;;;;;;1825996;77;21780;-74
2023/03/21 04:47:28;;;;;;;31.10;22.58;;;35.60;50.30;;;;;;1826072;76;21181;-74
2023/03/21 04:50:00;;;;;;;32.40;25.37;;;35.60;50.00;;;;;;1830126;78;21396;-75
2023/03/21 04:52:31;;;;;;;33.23;25.37;;;35.70;50.70;;;;;;1844727;76;21132;-74
2023/03/21 04:55:03;;;;;;;34.67;23.50;;;35.80;51.30;;;;;;1825967;78;21135;-74
2023/03/21 04:57:35;;;;;;;26.80;21.82;;;35.90;50.90;;;;;;1838473;78;21661;-75
2023/03/21 05:00:13;;;;;;;27.20;22.82;;;35.90;50.20;;;;;;1822891;77;21206;-74
2023/03/21 05:02:43;;;;;;;28.27;22.75;;;36.00;50.30;;;;;;1823003;76;21174;-76
2023/03/21 05:05:15;;;;;;;33.42;24.43;;;36.00;50.10;;;;;;1865319;75;21167;-75
2023/03/21 05:07:46;;;;;;;27.62;24.18;;;36.10;51.20;;;;;;1864766;75;21531;-76
2023/03/21 05:10:21;;;;;;;32.78;23.95;;;36.20;50.80;;;;;;1870340;75;21206;-75
2023/03/21 05:12:52;;;;;;;28.85;23.67;;;36.20;50.80;;;;;;1809284;77;21689;-78
2023/03/21 05:15:30;;;;;;;27.73;22.98;;;36.20;50.70;;;;;;1842114;78;21175;-75
2023/03/21 05:18:10;;;;;;;29.27;23.75;;;36.20;50.00;;;;;;1841834;78;21802;-77
2023/03/21 05:20:34;;;;;;;30.77;24.45;;;36.30;50.30;;;;;;1832676;76;21168;-75
2023/03/21 05:23:09;;;;;;;27.60;24.55;;;36.30;51.20;;;;;;1801417;77;21135;-76
2023/03/21 05:25:39;;;;;;;28.73;22.10;;;36.30;51.00;;;;;;1860975;75;21131;-77
2023/03/21 05:28:10;;;;;;;27.85;24.37;;;36.40;49.10;;;;;;1842942;75;21182;-76
2023/03/21 05:30:41;;;;;;;26.93;22.73;;;36.40;48.90;;;;;;1793729;78;21205;-76
2023/03/21 05:33:13;;;;;;;26.60;22.22;;;36.50;49.00;;;;;;1858041;76;21737;-75
2023/03/21 05:35:44;;;;;;;30.17;22.42;;;36.50;48.70;;;;;;1825848;77;21330;-76
2023/03/21 05:38:15;;;;;;;26.37;21.02;;;36.50;48.70;;;;;;1804518;78;21178;-77
2023/03/21 05:40:50;;;;;;;26.20;21.12;;;36.50;49.90;;;;;;1771991;81;21242;-75
2023/03/21 05:43:21;;;;;;;26.55;20.65;;;36.60;47.70;;;;;;1779270;79;21462;-75
2023/03/21 05:45:54;;;;;;;27.37;19.42;;;36.60;45.90;;;;;;1776023;79;21224;-75
2023/03/21 05:48:25;;;;;;;25.52;20.80;;;36.60;46.10;;;;;;1805035;78;21992;-76
2023/03/21 05:50:56;;;;;;;27.00;20.72;;;36.60;45.90;;;;;;1775548;79;21279;-75
2023/03/21 05:53:27;;;;;;;27.87;19.27;;;36.70;44.70;;;;;;1791557;79;21210;-75
2023/03/21 05:55:59;;;;;;;28.47;19.37;;;36.70;44.70;;;;;;1773603;79;21192;-75
2023/03/21 05:58:30;;;;;;;23.67;18.60;;;36.80;44.10;;;;;;1787053;79;21152;-76
2023/03/21 06:01:01;;;;;;;24.98;18.95;;;36.80;44.50;;;;;;1783810;79;21108;-75
2023/03/21 06:03:32;;;;;;;24.18;19.30;;;36.90;44.30;;;;;;1792318;79;21222;-76
2023/03/21 06:06:06;;;;;;;84.22;23.52;;;37.00;45.10;;;;;;1797030;78;21214;-75
2023/03/21 06:08:37;;;;;;;22.82;17.92;;;37.00;44.00;;;;;;1779654;80;21141;-78
2023/03/21 06:11:11;;;;;;;25.37;18.70;;;37.10;44.20;;;;;;1806566;78;21169;-75
2023/03/21 06:13:42;;;;;;;26.25;18.70;;;37.10;43.40;;;;;;1773534;79;21144;-77
2023/03/21 06:16:13;;;;;;;22.95;20.50;;;37.10;44.20;;;;;;1784244;78;21656;-76
2023/03/21 06:18:45;;;;;;;24.47;19.80;;;37.10;45.90;;;;;;1861292;77;21148;-76
2023/03/21 06:21:16;;;;;;;28.62;19.27;;;37.00;46.40;;;;;;1788293;79;21202;-75
2023/03/21 06:23:53;;;;;;;67.03;23.67;;;37.00;46.40;;;;;;1843327;77;21623;-75
2023/03/21 06:26:22;;;;;;;23.90;18.80;;;37.20;44.10;;;;;;1795831;79;21833;-76
2023/03/21 06:28:54;;;;;;;29.50;19.37;;;37.30;45.60;;;;;;1776419;79;21195;-75
2023/03/21 06:31:25;;;;;;;29.85;20.20;;;37.30;45.70;;;;;;1786495;79;21394;-76
2023/03/21 06:33:56;;;;;;;30.12;19.95;;;37.30;46.70;;;;;;1779063;78;21136;-76
2023/03/21 06:36:27;;;;;;;32.25;20.77;;;37.40;44.40;;;;;;1791326;78;21152;-75
2023/03/21 06:38:58;;;;;;;23.30;19.65;;;37.30;44.80;;;;;;1797411;79;21382;-77
2023/03/21 06:41:30;;;;;;;28.98;19.90;;;37.30;45.10;;;;;;1787843;79;21212;-76
2023/03/21 06:44:01;;;;;;;25.52;20.75;;;37.30;45.80;;;;;;1795083;79;21500;-75
2023/03/21 06:46:32;;;;;;;24.57;19.32;;;37.30;46.50;;;;;;1791751;79;21199;-78
2023/03/21 06:49:03;;;;;;;27.60;19.75;;;37.20;47.00;;;;;;1785697;78;21412;-75
2023/03/21 06:51:34;;;;;;;24.18;19.73;;;37.20;46.80;;;;;;1794557;79;21140;-75
2023/03/21 06:54:05;;;;;;;28.50;18.12;;;37.20;46.70;;;;;;1777531;79;21180;-75
2023/03/21 06:56:36;;;;;;;28.62;19.60;;;37.20;46.30;;;;;;1792631;78;21160;-75
2023/03/21 06:59:07;;;;;;;25.30;18.67;;;37.20;46.90;;;;;;1798105;79;21734;-76
2023/03/21 07:01:39;;;;;;;28.92;19.77;;;37.20;45.50;;;;;;1793815;79;21187;-74
2023/03/21 07:04:10;;;;;;;39.42;21.60;;;37.20;45.60;;;;;;1791312;78;21304;-75
2023/03/21 07:06:41;;;;;;;25.30;18.65;;;37.20;45.70;;;;;;1791279;79;21199;-75
2023/03/21 07:09:12;;;;;;;74.25;22.07;;;37.20;46.30;;;;;;1778027;79;21244;-76
2023/03/21 07:11:44;;;;;;;27.77;19.35;;;37.20;46.00;;;;;;1800150;78;21228;-75
2023/03/21 07:14:15;;;;;;;23.20;18.07;;;37.20;46.20;;;;;;1789044;78;21208;-75
2023/03/21 07:16:47;;;;;;;28.07;19.82;;;37.20;45.80;;;;;;1796580;79;21946;-75
2023/03/21 07:19:18;;;;;;;31.57;19.55;;;37.20;46.30;;;;;;1792967;78;21172;-73
2023/03/21 07:21:49;;;;;;;32.58;20.43;;;37.20;46.30;;;;;;1837625;77;21178;-75
2023/03/21 07:24:20;;;;;;;26.45;18.55;;;37.20;46.10;;;;;;1794662;79;21182;-76
2023/03/21 07:26:51;;;;;;;25.77;19.27;;;37.20;46.10;;;;;;1806605;77;21449;-75
2023/03/21 07:29:23;;;;;;;29.05;19.57;;;37.20;45.80;;;;;;1857754;76;21111;-76
2023/03/21 07:31:54;;;;;;;23.62;17.98;;;37.20;46.80;;;;;;1796259;80;21478;-75
2023/03/21 07:34:30;;;;;;;23.47;18.37;;;37.10;45.90;;;;;;1797213;78;21612;-74
2023/03/21 07:36:58;;;;;;;30.82;19.05;;;37.10;46.20;;;;;;1813795;77;22011;-75
2023/03/21 07:39:31;;;;;;;22.02;18.30;;;37.10;46.70;;;;;;1830320;77;21155;-76
2023/03/21 07:42:02;;;;;;;25.27;18.10;;;37.10;46.10;;;;;;1858349;77;21823;-76
2023/03/21 07:44:33;;;;;;;22.13;19.17;;;37.10;46.40;;;;;;1825421;78;21631;-76
2023/03/21 07:47:05;;;;;;;23.18;18.73;;;37.00;46.50;;;;;;1858503;76;21237;-76
2023/03/21 07:49:38;;;;;;;25.00;19.07;;;37.00;46.20;;;;;;1833827;77;21156;-75
2023/03/21 07:52:09;;;;;;;69.25;22.35;;;37.00;46.60;;;;;;1863259;76;21449;-75
2023/03/21 07:54:40;;;;;;;29.37;18.75;;;37.00;45.70;;;;;;1825163;78;21164;-75
2023/03/21 07:57:12;;;;;;;21.42;18.23;;;37.00;45.90;;;;;;1826293;78;21930;-75
2023/03/21 07:59:44;;;;;;;26.17;18.17;;;37.00;46.20;;;;;;1816808;78;21672;-75
2023/03/21 08:02:16;;;;;;;24.27;18.02;;;37.00;46.10;;;;;;1804471;77;21637;-76
2023/03/21 08:04:47;;;;;;;29.37;18.87;;;37.00;46.50;;;;;;1807630;77;21188;-76
2023/03/21 08:07:19;;;;;;;20.92;17.75;;;37.00;46.20;;;;;;1821433;77;21512;-76
2023/03/21 08:09:50;;;;;;;24.60;17.37;;;37.00;46.20;;;;;;1823558;77;21675;-75
2023/03/21 08:12:21;;;;;;;23.70;17.50;;;37.00;46.10;;;;;;1795701;80;21163;-76
2023/03/21 08:14:52;;;;;;;37.93;23.98;;;37.00;46.20;;;;;;1805786;77;21372;-74
2023/03/21 08:17:23;;;;;;;27.27;19.20;;;37.10;46.70;;;;;;1869905;76;21723;-75
2023/03/21 08:19:55;;;;;;;25.55;18.70;;;37.00;46.40;;;;;;1795651;80;21187;-76
2023/03/21 08:22:27;;;;;;;31.95;20.17;;;37.10;46.00;;;;;;1797355;80;21108;-79
2023/03/21 08:24:58;;;;;;;24.25;18.37;;;37.00;46.40;;;;;;1799491;78;21227;-81
2023/03/21 08:27:31;;;;;;;20.50;18.40;;;37.00;46.60;;;;;;1800553;78;21085;-78
2023/03/21 08:30:02;;;;;;;28.25;19.23;;;36.90;45.90;;;;;;1831554;77;22048;-77
2023/03/21 08:32:33;;;;;;;23.90;19.32;;;36.90;46.60;;;;;;1856909;77;21428;-76
2023/03/21 08:35:09;;;;;;;22.52;18.40;;;36.90;46.40;;;;;;1829351;77;21229;-77
2023/03/21 08:37:45;;;;;;;26.48;20.32;;;36.90;46.80;;;;;;1834677;77;21421;-78
2023/03/21 08:40:21;;;;;;;24.30;18.52;;;36.90;46.30;;;;;;1793155;78;21206;-77
2023/03/21 08:42:52;;;;;;;29.48;19.35;;;36.90;46.80;;;;;;1844870;77;21138;-77
2023/03/21 08:45:24;;;;;;;23.92;19.32;;;36.90;46.40;;;;;;1836436;77;21482;-79
2023/03/21 08:47:55;;;;;;;30.55;19.67;;;36.90;46.00;;;;;;1849474;75;21175;-77
2023/03/21 08:50:29;;;;;;;20.52;18.27;;;37.00;46.10;;;;;;1836906;77;21817;-77
2023/03/21 08:53:00;;;;;;;19.23;17.20;;;37.00;45.30;;;;;;1869938;76;21341;-79
2023/03/21 08:55:35;;;;;;;21.15;17.82;;;37.00;45.90;;;;;;1863700;75;21183;-79
2023/03/21 08:58:13;;;;;;;30.48;18.65;;;36.90;45.80;;;;;;1874951;75;21131;-78
2023/03/21 09:00:44;;;;;;;21.37;17.05;;;36.90;46.40;;;;;;1868671;75;21170;-78
2023/03/21 09:03:16;;;;;;;25.95;18.73;;;36.80;45.30;;;;;;1861366;77;21242;-78
2023/03/21 09:05:48;;;;;;;30.68;19.75;;;36.70;45.50;;;;;;1810971;77;21197;-77
2023/03/21 09:08:22;;;;;;;21.40;18.65;;;36.70;46.20;;;;;;1821709;78;21267;-79
2023/03/21 09:10:57;;;;;;;37.30;19.65;;;36.60;46.20;;;;;;1855276;77;21262;-78
2023/03/21 09:13:28;;;;;;;18.65;16.73;;;36.60;46.00;;;;;;1879383;75;21164;-78
2023/03/21 09:16:00;;;;;;;30.72;17.32;;;36.60;46.00;;;;;;1856092;76;21174;-77
2023/03/21 09:18:54;;;;;;;26.45;18.52;;;36.60;46.10;;;;;;1838712;76;21194;-78
2023/03/21 09:21:22;;;;;;;20.30;16.87;;;36.60;46.10;;;;;;1858967;76;21146;-78
2023/03/21 09:23:57;;;;;;;28.57;20.30;;;36.60;45.50;;;;;;1868188;76;21215;-79
2023/03/21 09:26:27;;;;;;;20.68;17.82;;;36.60;45.40;;;;;;1876982;76;21150;-79
2023/03/21 09:28:59;;;;;;;21.20;18.15;;;36.60;45.80;;;;;;1823493;78;21455;-78
2023/03/21 09:31:31;;;;;;;24.25;17.87;;;36.60;45.30;;;;;;1847829;77;21166;-79
2023/03/21 09:34:02;;;;;;;26.70;17.00;;;36.70;45.10;;;;;;1855332;77;21233;-78
2023/03/21 09:36:34;;;;;;;26.77;17.82;;;36.70;46.00;;;;;;1849566;76;21766;-79
2023/03/21 09:39:05;;;;;;;24.18;18.67;;;36.60;45.20;;;;;;1846234;77;21151;-78
2023/03/21 09:42:10;;;;;;;25.62;16.30;;;36.70;45.00;;;;;;1854204;76;21439;-78
2023/03/21 09:44:51;;;;;;;22.15;17.07;;;36.60;45.00;;;;;;1795888;78;21146;-77
2023/03/21 09:47:33;;;;;;;20.25;18.00;;;36.60;45.40;;;;;;1808329;78;21219;-77
2023/03/21 09:50:07;;;;;;;21.73;17.12;;;36.50;45.50;;;;;;1802092;78;21490;-80
2023/03/21 09:52:59;;;;;;;22.17;16.70;;;36.50;45.10;;;;;;1804906;79;21187;-77
2023/03/21 09:55:33;;;;;;;35.95;18.12;;;36.50;45.00;;;;;;1818192;78;21149;-77
2023/03/21 09:58:31;;;;;;;22.13;16.93;;;36.40;44.80;;;;;;1786388;79;21208;-76
2023/03/21 10:01:26;;;;;;;22.32;16.93;;;36.50;45.60;;;;;;1748668;80;21198;-76
2023/03/21 10:03:55;;;;;;;23.65;16.37;;;36.40;45.10;;;;;;1756418;80;21299;-76
2023/03/21 10:06:30;;;;;;;19.52;17.37;;;36.40;45.70;;;;;;1768859;79;21269;-80
2023/03/21 10:09:10;;;;;;;25.45;16.40;;;36.40;44.60;;;;;;1768172;79;21271;-75
2023/03/21 10:11:51;;;;;;;19.65;17.35;;;36.40;45.30;;;;;;1751580;81;21307;-78
2023/03/21 10:14:33;;;;;;;24.32;17.30;;;36.40;45.30;;;;;;1815086;78;21633;-79
2023/03/21 10:17:29;;;;;;;23.12;16.52;;;36.20;44.80;;;;;;1803219;78;21155;-79
2023/03/21 10:20:29;;;;;;;23.73;16.70;;;36.30;44.70;;;;;;1734860;81;21198;-86
2023/03/21 10:23:02;;;;;;;19.55;16.40;;;36.20;44.80;;;;;;1792758;80;21103;-86
2023/03/21 10:25:48;;;;;;;21.15;16.65;;;36.20;45.00;;;;;;1800622;78;21145;-86
2023/03/21 10:28:24;;;;;;;32.38;16.75;;;36.10;45.40;;;;;;1807528;78;21270;-87
2023/03/21 10:30:55;;;;;;;;;;;36.10;45.00;;;;;;1814093;78;21230;-87
2023/03/21 10:33:31;;;;;;;21.23;16.32;;;36.20;46.50;;;;;;1741682;80;20160;-85
2023/03/21 10:36:04;;;;;;;25.50;17.30;;;36.10;45.30;;;;;;1790708;78;21471;-84
2023/03/21 10:38:37;;;;;;;21.15;16.73;;;36.10;45.40;;;;;;1798210;78;21291;-86
2023/03/21 10:41:09;;;;;;;22.15;16.80;;;36.00;45.70;;;;;;1794437;80;21170;-86
2023/03/21 10:43:44;;;;;;;23.22;17.12;;;36.00;45.30;;;;;;1817770;77;21146;-87
2023/03/21 10:46:22;;;;;;;22.50;16.02;;;36.00;45.40;;;;;;1784825;79;21252;-86
2023/03/21 10:48:55;;;;;;;22.15;18.15;;;35.90;45.30;;;;;;1786001;79;21194;-87
2023/03/21 10:51:36;;;;;;;24.65;17.07;;;35.90;45.70;;;;;;1788049;79;21452;-86
2023/03/21 10:54:10;;;;;;;20.02;16.87;;;35.90;45.90;;;;;;1811375;78;21242;-85
2023/03/21 10:56:46;;;;;;;23.00;17.40;;;35.90;45.10;;;;;;1809623;79;21158;-85
2023/03/21 10:59:19;;;;;;;25.50;18.37;;;35.80;45.60;;;;;;1781898;78;21146;-85
2023/03/21 11:01:54;;;;;;;29.75;17.62;;;35.80;45.50;;;;;;1791053;79;21111;-85
2023/03/21 11:04:29;;;;;;;22.80;17.62;;;35.80;45.80;;;;;;1794256;78;21976;-85
2023/03/21 11:07:06;;;;;;;23.30;17.00;;;35.80;45.60;;;;;;1788615;79;21158;-86
2023/03/21 11:09:54;;;;;;;24.37;17.77;;;35.80;46.20;;;;;;1804388;78;21257;-85
2023/03/21 11:12:30;;;;;;;29.72;18.05;;;35.80;46.60;;;;;;1760830;81;21111;-85
2023/03/21 11:15:20;;;;;;;22.48;17.07;;;35.70;46.60;;;;;;1761845;80;21131;-84
2023/03/21 11:17:51;;;;;;;26.73;18.23;;;35.70;46.90;;;;;;1801789;79;21132;-85
2023/03/21 11:20:24;;;;;;;25.52;18.48;;;35.60;46.60;;;;;;1806683;79;21156;-85
2023/03/21 11:22:56;;;;;;;25.05;18.07;;;35.60;46.90;;;;;;1794760;78;21236;-86
2023/03/21 11:25:38;;;;;;;23.85;17.73;;;35.50;47.10;;;;;;1768503;79;21213;-85
2023/03/21 11:28:15;;;;;;;19.67;17.57;;;35.50;47.50;;;;;;1808754;79;21186;-86
2023/03/21 11:31:00;;;;;;;23.38;17.60;;;35.40;47.50;;;;;;1793542;78;21202;-86
2023/03/21 11:33:37;;;;;;;23.42;18.32;;;35.40;47.30;;;;;;1803054;78;21244;-87
2023/03/21 11:36:08;;;;;;;;;;;35.30;47.20;;;;;;1786840;80;21162;-86
2023/03/21 11:38:40;;;;;;;23.83;18.60;;;35.30;47.60;;;;;;1788108;79;20215;-86
2023/03/21 11:41:14;;;;;;;24.40;18.80;;;35.30;47.50;;;;;;1813161;79;21222;-84
2023/03/21 11:43:48;;;;;;;24.47;18.32;;;35.30;47.70;;;;;;1790789;78;21169;-86
2023/03/21 11:46:24;;;;;;;30.97;19.07;;;35.20;47.50;;;;;;1851618;77;21283;-86
2023/03/21 11:48:57;;;;;;;25.32;18.27;;;35.20;47.50;;;;;;1823831;77;21156;-86
2023/03/21 11:51:36;;;;;;;32.48;20.48;;;35.10;47.70;;;;;;1746701;81;21239;-85
2023/03/21 11:54:34;;;;;;;28.32;18.62;;;35.10;47.70;;;;;;1813771;77;21170;-85
2023/03/21 11:57:31;;;;;;;33.78;20.80;;;35.10;47.80;;;;;;1842040;76;21228;-84
2023/03/21 12:00:14;;;;;;;25.82;19.45;;;35.00;47.60;;;;;;1846562;77;21248;-87
2023/03/21 12:02:54;;;;;;;27.13;21.50;;;35.00;47.90;;;;;;1804145;78;21157;-85
2023/03/21 12:05:30;;;;;;;31.65;22.98;;;35.00;47.80;;;;;;1824025;77;21131;-85
2023/03/21 12:08:19;;;;;;;34.08;21.50;;;35.00;48.00;;;;;;1807640;79;21211;-85
2023/03/21 12:11:04;;;;;;;28.33;20.63;;;34.90;48.00;;;;;;1837436;77;21496;-85
2023/03/21 12:13:56;;;;;;;26.10;20.02;;;34.90;48.00;;;;;;1798657;78;21162;-85
2023/03/21 12:16:52;;;;;;;28.62;20.37;;;34.90;47.70;;;;;;1824039;78;21646;-85
2023/03/21 12:19:32;;;;;;;;;;;34.80;48.20;;;;;;1818462;77;21145;-85
2023/03/21 12:22:12;;;;;;;24.98;20.57;;;34.80;48.30;;;;;;1843752;77;20166;-85
2023/03/21 12:24:53;;;;;;;25.35;19.37;;;34.80;48.20;;;;;;1822894;78;21442;-85
2023/03/21 12:27:46;;;;;;;28.55;19.62;;;34.80;48.00;;;;;;1825065;78;21191;-84
2023/03/21 12:30:32;;;;;;;27.95;19.25;;;34.80;47.70;;;;;;1785894;78;21233;-85
2023/03/21 12:33:12;;;;;;;28.07;20.70;;;34.70;47.40;;;;;;1828282;77;21089;-85
2023/03/21 12:35:45;;;;;;;30.15;20.70;;;34.70;47.70;;;;;;1840159;77;21990;-85
2023/03/21 12:38:27;;;;;;;31.87;19.80;;;34.70;47.80;;;;;;1827288;77;21507;-85
2023/03/21 12:41:17;;;;;;;29.23;20.50;;;34.70;48.00;;;;;;1830141;77;21149;-85
2023/03/21 12:44:06;;;;;;;29.80;20.37;;;34.70;48.10;;;;;;1786937;78;21297;-86
2023/03/21 12:47:03;;;;;;;31.57;20.20;;;34.60;47.70;;;;;;1825468;77;21150;-85
2023/03/21 12:50:00;;;;;;;24.23;19.92;;;34.60;48.00;;;;;;1747175;78;21238;-85
2023/03/21 12:52:36;;;;;;;27.05;19.48;;;34.60;48.00;;;;;;1826118;77;21194;-86
2023/03/21 12:55:30;;;;;;;26.60;20.05;;;34.50;48.00;;;;;;1825580;77;21259;-84
2023/03/21 12:58:00;;;;;;;31.75;20.35;;;34.50;48.00;;;;;;1789967;78;21127;-85
2023/03/21 13:00:39;;;;;;;30.70;21.25;;;34.50;47.90;;;;;;1811202;78;21152;-85
2023/03/21 13:03:25;;;;;;;30.82;21.25;;;34.50;47.80;;;;;;1840427;77;21209;-86
2023/03/21 13:05:58;;;;;;;25.88;20.40;;;34.40;48.00;;;;;;1803883;78;21120;-86
2023/03/21 13:08:29;;;;;;;;;;;34.40;48.10;;;;;;1815730;77;21158;-86
2023/03/21 13:11:01;;;;;;;32.40;21.40;;;34.40;48.30;;;;;;1831949;77;20208;-85